PWSweather.com
Personal Weather Stations
Station Observations
NORTHPOLE1
Tombur Subdivision, North Pole, AK 99705

Tombur SubdivisionNorth Pole, AK 99705

Lat: 64.774039, Lon: -147.284862

Elevation: 434

Station Type: Davis Vantage Pro 2

http://kl7ac.com

Latest ConditionsUpdated 5:15:00 PM AKST Sunday, Jun 26, 2016
Currently Today's Max Today's Min Today's Average
Temperature 59.0°F15.0°C 83.0°F28.3°C 49.3°F9.6°C 63.5°F17.5°C
Dew Point 57.3°F14.1°C 60.4°F15.8°C 46.6°F8.1°C 53.4°F11.9°C
Winds 2.0 mph E3.2 kmh E 12.0 mph SW19.3 kmh SW - 1.4 mph 2.3 kmh
Wind Gusts 8.0 mph12.9 kmh 30.0 mph48.3 kmh - -
Humidity 94% 94% 41% 73%
Pressure 29.88 in1011.9 mb 29.88 in1011.9 mb 29.75 in1007.5 mb -
Precipitation - 0.18 in4.6 mm - -
Hour Temp Dew Point Humidity Winds Wind Gusts Pressure Precip Precip Rate Daily Precip Total
05:15 PM 59.0°F15.0°C 57.3°F14.1°C 94% 2.0 mph E3.2 kmh E 8.0 mph12.9 kmh 29.88 in1011.9 mb 0.15 in3.8 mm 0.00 in0.0 mm 0.18 in4.6 mm
05:10 PM 59.0°F15.0°C 57.3°F14.1°C 94% 1.0 mph E1.6 kmh E 5.0 mph8.0 kmh 29.87 in1011.5 mb 0.15 in3.8 mm 0.00 in0.0 mm 0.18 in4.6 mm
05:05 PM 59.1°F15.1°C 57.1°F13.9°C 93% Calm Calm 3.0 mph4.8 kmh 29.86 in1011.2 mb 0.15 in3.8 mm 0.00 in0.0 mm 0.18 in4.6 mm
05:00 PM 59.4°F15.2°C 57.1°F13.9°C 92% 1.0 mph WNW1.6 kmh WNW 4.0 mph6.4 kmh 29.86 in1011.2 mb 0.15 in3.8 mm 0.00 in0.0 mm 0.18 in4.6 mm
04:55 PM 59.8°F15.4°C 57.5°F14.2°C 92% 2.0 mph WNW3.2 kmh WNW 10.0 mph16.1 kmh 29.85 in1010.8 mb 0.16 in4.1 mm 0.12 in3.0 mm 0.18 in4.6 mm
04:50 PM 60.3°F15.7°C 57.7°F14.3°C 91% 4.0 mph W6.4 kmh W 15.0 mph24.1 kmh 29.85 in1010.8 mb 0.15 in3.8 mm 0.48 in12.2 mm 0.17 in4.3 mm
04:45 PM 60.9°F16.1°C 57.9°F14.4°C 90% 5.0 mph W8.0 kmh W 15.0 mph24.1 kmh 29.84 in1010.5 mb 0.11 in2.8 mm 0.60 in15.2 mm 0.13 in3.3 mm
04:40 PM 61.4°F16.3°C 58.1°F14.5°C 89% 4.0 mph W6.4 kmh W 14.0 mph22.5 kmh 29.84 in1010.5 mb 0.06 in1.5 mm 0.36 in9.1 mm 0.06 in1.5 mm
04:35 PM 61.7°F16.5°C 58.4°F14.7°C 89% 4.0 mph WSW6.4 kmh WSW 11.0 mph17.7 kmh 29.83 in1010.2 mb 0.03 in0.8 mm 0.00 in0.0 mm 0.03 in0.8 mm
04:30 PM 61.9°F16.6°C 58.3°F14.6°C 88% 4.0 mph WSW6.4 kmh WSW 12.0 mph19.3 kmh 29.83 in1010.2 mb 0.03 in0.8 mm 0.00 in0.0 mm 0.03 in0.8 mm
04:25 PM 62.1°F16.7°C 58.5°F14.7°C 88% 4.0 mph W6.4 kmh W 12.0 mph19.3 kmh 29.83 in1010.2 mb 0.03 in0.8 mm 0.00 in0.0 mm 0.03 in0.8 mm
04:20 PM 62.4°F16.9°C 58.8°F14.9°C 88% 4.0 mph WSW6.4 kmh WSW 10.0 mph16.1 kmh 29.83 in1010.2 mb 0.03 in0.8 mm 0.00 in0.0 mm 0.03 in0.8 mm
04:15 PM 62.8°F17.1°C 58.9°F14.9°C 87% 4.0 mph WSW6.4 kmh WSW 10.0 mph16.1 kmh 29.82 in1009.8 mb 0.03 in0.8 mm 0.00 in0.0 mm 0.03 in0.8 mm
04:10 PM 63.3°F17.4°C 59.4°F15.2°C 87% 4.0 mph WSW6.4 kmh WSW 11.0 mph17.7 kmh 29.82 in1009.8 mb 0.03 in0.8 mm 0.00 in0.0 mm 0.03 in0.8 mm
04:05 PM 63.9°F17.7°C 59.3°F15.2°C 85% 5.0 mph WSW8.0 kmh WSW 11.0 mph17.7 kmh 29.81 in1009.5 mb 0.03 in0.8 mm 0.00 in0.0 mm 0.03 in0.8 mm
04:00 PM 64.6°F18.1°C 59.3°F15.2°C 83% 4.0 mph WSW6.4 kmh WSW 11.0 mph17.7 kmh 29.80 in1009.1 mb 0.03 in0.8 mm 0.01 in0.3 mm 0.03 in0.8 mm
03:55 PM 65.4°F18.6°C 59.4°F15.2°C 81% 5.0 mph WSW8.0 kmh WSW 13.0 mph20.9 kmh 29.80 in1009.1 mb 0.02 in0.5 mm 0.00 in0.0 mm 0.02 in0.5 mm
03:50 PM 66.4°F19.1°C 59.3°F15.2°C 78% 7.0 mph SW11.3 kmh SW 16.0 mph25.7 kmh 29.79 in1008.8 mb 0.02 in0.5 mm 0.12 in3.0 mm 0.02 in0.5 mm
03:45 PM 67.7°F19.8°C 58.7°F14.8°C 73% 10.0 mph SW16.1 kmh SW 23.0 mph37.0 kmh 29.79 in1008.8 mb 0.01 in0.3 mm 0.12 in3.0 mm 0.01 in0.3 mm
03:40 PM 69.0°F20.6°C 58.0°F14.4°C 68% 12.0 mph SW19.3 kmh SW 24.0 mph38.6 kmh 29.78 in1008.5 mb 0.00 in0.0 mm 0.00 in0.0 mm 0.00 in0.0 mm
03:35 PM 69.7°F20.9°C 54.3°F12.4°C 58% 9.0 mph SW14.5 kmh SW 24.0 mph38.6 kmh 29.78 in1008.5 mb 0.00 in0.0 mm 0.00 in0.0 mm 0.00 in0.0 mm
03:30 PM 70.5°F21.4°C 54.0°F12.2°C 56% 8.0 mph SW12.9 kmh SW 19.0 mph30.6 kmh 29.78 in1008.5 mb 0.00 in0.0 mm 0.00 in0.0 mm 0.00 in0.0 mm
03:25 PM 71.3°F21.8°C 53.8°F12.1°C 54% 10.0 mph SW16.1 kmh SW 30.0 mph48.3 kmh 29.78 in1008.5 mb 0.00 in0.0 mm 0.00 in0.0 mm 0.00 in0.0 mm
03:20 PM 72.4°F22.4°C 54.3°F12.4°C 53% 11.0 mph SW17.7 kmh SW 30.0 mph48.3 kmh 29.78 in1008.5 mb 0.00 in0.0 mm 0.00 in0.0 mm 0.00 in0.0 mm
03:15 PM 73.6°F23.1°C 55.9°F13.3°C 54% 11.0 mph SW17.7 kmh SW 27.0 mph43.5 kmh 29.78 in1008.5 mb 0.00 in0.0 mm 0.00 in0.0 mm 0.00 in0.0 mm
03:10 PM 74.6°F23.7°C 55.8°F13.2°C 52% 10.0 mph SW16.1 kmh SW 27.0 mph43.5 kmh 29.78 in1008.5 mb 0.00 in0.0 mm 0.00 in0.0 mm 0.00 in0.0 mm
03:05 PM 75.5°F24.2°C 55.6°F13.1°C 50% 7.0 mph WSW11.3 kmh WSW 21.0 mph33.8 kmh 29.76 in1007.8 mb 0.00 in0.0 mm 0.00 in0.0 mm 0.00 in0.0 mm
03:00 PM 76.2°F24.6°C 57.3°F14.1°C 52% 5.0 mph WNW8.0 kmh WNW 14.0 mph22.5 kmh 29.76 in1007.8 mb 0.00 in0.0 mm 0.00 in0.0 mm 0.00 in0.0 mm
02:55 PM 77.2°F25.1°C 57.1°F13.9°C 50% 5.0 mph WNW8.0 kmh WNW 14.0 mph22.5 kmh 29.76 in1007.8 mb 0.00 in0.0 mm 0.00 in0.0 mm 0.00 in0.0 mm
02:50 PM 78.3°F25.7°C 57.6°F14.2°C 49% 4.0 mph WNW6.4 kmh WNW 12.0 mph19.3 kmh 29.75 in1007.5 mb 0.00 in0.0 mm 0.00 in0.0 mm 0.00 in0.0 mm
02:45 PM 79.3°F26.3°C 57.9°F14.4°C 48% 3.0 mph WNW4.8 kmh WNW 11.0 mph17.7 kmh 29.75 in1007.5 mb 0.00 in0.0 mm 0.00 in0.0 mm 0.00 in0.0 mm
02:40 PM 79.9°F26.6°C 56.7°F13.7°C 45% 3.0 mph W4.8 kmh W 13.0 mph20.9 kmh 29.75 in1007.5 mb 0.00 in0.0 mm 0.00 in0.0 mm 0.00 in0.0 mm
02:35 PM 80.0°F26.7°C 56.1°F13.4°C 44% 4.0 mph WSW6.4 kmh WSW 13.0 mph20.9 kmh 29.75 in1007.5 mb 0.00 in0.0 mm 0.00 in0.0 mm 0.00 in0.0 mm
02:30 PM 80.3°F26.8°C 57.0°F13.9°C 45% 3.0 mph W4.8 kmh W 11.0 mph17.7 kmh 29.75 in1007.5 mb 0.00 in0.0 mm 0.00 in0.0 mm 0.00 in0.0 mm
02:25 PM 80.7°F27.1°C 56.8°F13.8°C 44% 2.0 mph W3.2 kmh W 8.0 mph12.9 kmh 29.75 in1007.5 mb 0.00 in0.0 mm 0.00 in0.0 mm 0.00 in0.0 mm
02:20 PM 81.7°F27.6°C 58.3°F14.6°C 45% 3.0 mph W4.8 kmh W 10.0 mph16.1 kmh 29.75 in1007.5 mb 0.00 in0.0 mm 0.00 in0.0 mm 0.00 in0.0 mm
02:15 PM 82.2°F27.9°C 56.2°F13.4°C 41% 4.0 mph WSW6.4 kmh WSW 12.0 mph19.3 kmh 29.75 in1007.5 mb 0.00 in0.0 mm 0.00 in0.0 mm 0.00 in0.0 mm
02:10 PM 82.1°F27.8°C 56.1°F13.4°C 41% 3.0 mph WSW4.8 kmh WSW 12.0 mph19.3 kmh 29.75 in1007.5 mb 0.00 in0.0 mm 0.00 in0.0 mm 0.00 in0.0 mm
02:05 PM 81.8°F27.7°C 57.1°F13.9°C 43% 2.0 mph WSW3.2 kmh WSW 11.0 mph17.7 kmh 29.75 in1007.5 mb 0.00 in0.0 mm 0.00 in0.0 mm 0.00 in0.0 mm
02:00 PM 81.8°F27.7°C 58.4°F14.7°C 45% 3.0 mph WSW4.8 kmh WSW 11.0 mph17.7 kmh 29.75 in1007.5 mb 0.00 in0.0 mm 0.00 in0.0 mm 0.00 in0.0 mm
01:55 PM 81.6°F27.6°C 57.6°F14.2°C 44% 1.0 mph WSW1.6 kmh WSW 7.0 mph11.3 kmh 29.76 in1007.8 mb 0.00 in0.0 mm 0.00 in0.0 mm 0.00 in0.0 mm
01:50 PM 81.4°F27.4°C 58.6°F14.8°C 46% 1.0 mph WSW1.6 kmh WSW 8.0 mph12.9 kmh 29.76 in1007.8 mb 0.00 in0.0 mm 0.00 in0.0 mm 0.00 in0.0 mm
01:45 PM 81.4°F27.4°C 59.2°F15.1°C 47% 3.0 mph WSW4.8 kmh WSW 11.0 mph17.7 kmh 29.75 in1007.5 mb 0.00 in0.0 mm 0.00 in0.0 mm 0.00 in0.0 mm
01:40 PM 81.6°F27.6°C 58.2°F14.6°C 45% 4.0 mph WSW6.4 kmh WSW 11.0 mph17.7 kmh 29.76 in1007.8 mb 0.00 in0.0 mm 0.00 in0.0 mm 0.00 in0.0 mm
01:35 PM 82.0°F27.8°C 57.9°F14.4°C 44% 2.0 mph WSW3.2 kmh WSW 11.0 mph17.7 kmh 29.76 in1007.8 mb 0.00 in0.0 mm 0.00 in0.0 mm 0.00 in0.0 mm
01:30 PM 81.9°F27.7°C 58.5°F14.7°C 45% 1.0 mph SW1.6 kmh SW 7.0 mph11.3 kmh 29.76 in1007.8 mb 0.00 in0.0 mm 0.00 in0.0 mm 0.00 in0.0 mm
01:25 PM 82.0°F27.8°C 57.3°F14.1°C 43% 2.0 mph SW3.2 kmh SW 8.0 mph12.9 kmh 29.76 in1007.8 mb 0.00 in0.0 mm 0.00 in0.0 mm 0.00 in0.0 mm
01:20 PM 82.3°F27.9°C 57.6°F14.2°C 43% 2.0 mph SW3.2 kmh SW 10.0 mph16.1 kmh 29.76 in1007.8 mb 0.00 in0.0 mm 0.00 in0.0 mm 0.00 in0.0 mm
01:15 PM 82.4°F28.0°C 58.3°F14.6°C 44% 2.0 mph SW3.2 kmh SW 10.0 mph16.1 kmh 29.76 in1007.8 mb 0.00 in0.0 mm 0.00 in0.0 mm 0.00 in0.0 mm
01:10 PM 82.8°F28.2°C 59.3°F15.2°C 45% 2.0 mph SW3.2 kmh SW 7.0 mph11.3 kmh 29.76 in1007.8 mb 0.00 in0.0 mm 0.00 in0.0 mm 0.00 in0.0 mm
01:05 PM 82.7°F28.2°C 60.4°F15.8°C 47% 2.0 mph SSW3.2 kmh SSW 10.0 mph16.1 kmh 29.76 in1007.8 mb 0.00 in0.0 mm 0.00 in0.0 mm 0.00 in0.0 mm
01:00 PM 82.7°F28.2°C 57.9°F14.4°C 43% 3.0 mph SSW4.8 kmh SSW 10.0 mph16.1 kmh 29.76 in1007.8 mb 0.00 in0.0 mm 0.00 in0.0 mm 0.00 in0.0 mm
12:55 PM 83.0°F28.3°C 58.8°F14.9°C 44% 2.0 mph SW3.2 kmh SW 7.0 mph11.3 kmh 29.76 in1007.8 mb 0.00 in0.0 mm 0.00 in0.0 mm 0.00 in0.0 mm
12:50 PM 82.8°F28.2°C 59.3°F15.2°C 45% 2.0 mph SW3.2 kmh SW 7.0 mph11.3 kmh 29.76 in1007.8 mb 0.00 in0.0 mm 0.00 in0.0 mm 0.00 in0.0 mm
12:45 PM 82.1°F27.8°C 59.3°F15.2°C 46% 1.0 mph SW1.6 kmh SW 7.0 mph11.3 kmh 29.76 in1007.8 mb 0.00 in0.0 mm 0.00 in0.0 mm 0.00 in0.0 mm
12:40 PM 81.4°F27.4°C 59.2°F15.1°C 47% 1.0 mph WSW1.6 kmh WSW 9.0 mph14.5 kmh 29.76 in1007.8 mb 0.00 in0.0 mm 0.00 in0.0 mm 0.00 in0.0 mm
12:35 PM 80.8°F27.1°C 59.9°F15.5°C 49% 2.0 mph SW3.2 kmh SW 9.0 mph14.5 kmh 29.76 in1007.8 mb 0.00 in0.0 mm 0.00 in0.0 mm 0.00 in0.0 mm
12:30 PM 80.4°F26.9°C 58.9°F14.9°C 48% 2.0 mph SW3.2 kmh SW 7.0 mph11.3 kmh 29.76 in1007.8 mb 0.00 in0.0 mm 0.00 in0.0 mm 0.00 in0.0 mm
12:25 PM 79.8°F26.6°C 57.8°F14.3°C 47% 1.0 mph SSW1.6 kmh SSW 7.0 mph11.3 kmh 29.77 in1008.1 mb 0.00 in0.0 mm 0.00 in0.0 mm 0.00 in0.0 mm
12:20 PM 79.4°F26.3°C 58.6°F14.8°C 49% 1.0 mph SW1.6 kmh SW 6.0 mph9.7 kmh 29.77 in1008.1 mb 0.00 in0.0 mm 0.00 in0.0 mm 0.00 in0.0 mm
12:15 PM 79.4°F26.3°C 58.6°F14.8°C 49% 1.0 mph WSW1.6 kmh WSW 7.0 mph11.3 kmh 29.77 in1008.1 mb 0.00 in0.0 mm 0.00 in0.0 mm 0.00 in0.0 mm
12:10 PM 79.1°F26.2°C 57.1°F13.9°C 47% 3.0 mph W4.8 kmh W 12.0 mph19.3 kmh 29.78 in1008.5 mb 0.00 in0.0 mm 0.00 in0.0 mm 0.00 in0.0 mm
12:05 PM 78.7°F25.9°C 57.4°F14.1°C 48% 3.0 mph WSW4.8 kmh WSW 12.0 mph19.3 kmh 29.78 in1008.5 mb 0.00 in0.0 mm 0.00 in0.0 mm 0.00 in0.0 mm
12:00 PM 78.3°F25.7°C 56.4°F13.6°C 47% 2.0 mph W3.2 kmh W 7.0 mph11.3 kmh 29.78 in1008.5 mb 0.00 in0.0 mm 0.00 in0.0 mm 0.00 in0.0 mm
11:55 AM 78.0°F25.6°C 57.3°F14.1°C 49% 3.0 mph W4.8 kmh W 7.0 mph11.3 kmh 29.78 in1008.5 mb 0.00 in0.0 mm 0.00 in0.0 mm 0.00 in0.0 mm
11:50 AM 77.5°F25.3°C 56.8°F13.8°C 49% 2.0 mph SW3.2 kmh SW 5.0 mph8.0 kmh 29.78 in1008.5 mb 0.00 in0.0 mm 0.00 in0.0 mm 0.00 in0.0 mm
11:45 AM 76.9°F24.9°C 56.3°F13.5°C 49% 2.0 mph SSW3.2 kmh SSW 12.0 mph19.3 kmh 29.79 in1008.8 mb 0.00 in0.0 mm 0.00 in0.0 mm 0.00 in0.0 mm
11:40 AM 76.5°F24.7°C 56.5°F13.6°C 50% 2.0 mph WSW3.2 kmh WSW 12.0 mph19.3 kmh 29.79 in1008.8 mb 0.00 in0.0 mm 0.00 in0.0 mm 0.00 in0.0 mm
11:35 AM 76.3°F24.6°C 57.9°F14.4°C 53% 2.0 mph W3.2 kmh W 10.0 mph16.1 kmh 29.79 in1008.8 mb 0.00 in0.0 mm 0.00 in0.0 mm 0.00 in0.0 mm
11:30 AM 76.3°F24.6°C 57.4°F14.1°C 52% 2.0 mph WSW3.2 kmh WSW 10.0 mph16.1 kmh 29.79 in1008.8 mb 0.00 in0.0 mm 0.00 in0.0 mm 0.00 in0.0 mm
11:25 AM 76.2°F24.6°C 56.7°F13.7°C 51% 3.0 mph WSW4.8 kmh WSW 10.0 mph16.1 kmh 29.79 in1008.8 mb 0.00 in0.0 mm 0.00 in0.0 mm 0.00 in0.0 mm
11:20 AM 75.9°F24.4°C 58.1°F14.5°C 54% 3.0 mph WSW4.8 kmh WSW 10.0 mph16.1 kmh 29.80 in1009.1 mb 0.00 in0.0 mm 0.00 in0.0 mm 0.00 in0.0 mm
11:15 AM 75.2°F24.0°C 57.4°F14.1°C 54% 1.0 mph WSW1.6 kmh WSW 10.0 mph16.1 kmh 29.80 in1009.1 mb 0.00 in0.0 mm 0.00 in0.0 mm 0.00 in0.0 mm
11:10 AM 74.6°F23.7°C 56.9°F13.8°C 54% 2.0 mph WSW3.2 kmh WSW 9.0 mph14.5 kmh 29.80 in1009.1 mb 0.00 in0.0 mm 0.00 in0.0 mm 0.00 in0.0 mm
11:05 AM 73.8°F23.2°C 56.1°F13.4°C 54% 2.0 mph WSW3.2 kmh WSW 9.0 mph14.5 kmh 29.80 in1009.1 mb 0.00 in0.0 mm 0.00 in0.0 mm 0.00 in0.0 mm
11:00 AM 72.9°F22.7°C 57.3°F14.1°C 58% 1.0 mph WSW1.6 kmh WSW 6.0 mph9.7 kmh 29.80 in1009.1 mb 0.00 in0.0 mm 0.00 in0.0 mm 0.00 in0.0 mm
10:55 AM 72.4°F22.4°C 57.3°F14.1°C 59% 1.0 mph W1.6 kmh W 6.0 mph9.7 kmh 29.80 in1009.1 mb 0.00 in0.0 mm 0.00 in0.0 mm 0.00 in0.0 mm
10:50 AM 72.1°F22.3°C 56.5°F13.6°C 58% Calm Calm 1.0 mph1.6 kmh 29.80 in1009.1 mb 0.00 in0.0 mm 0.00 in0.0 mm 0.00 in0.0 mm
10:45 AM 71.7°F22.1°C 56.6°F13.7°C 59% Calm Calm 1.0 mph1.6 kmh 29.80 in1009.1 mb 0.00 in0.0 mm 0.00 in0.0 mm 0.00 in0.0 mm
10:40 AM 71.5°F21.9°C 56.4°F13.6°C 59% 1.0 mph WSW1.6 kmh WSW 7.0 mph11.3 kmh 29.80 in1009.1 mb 0.00 in0.0 mm 0.00 in0.0 mm 0.00 in0.0 mm
10:35 AM 71.2°F21.8°C 55.7°F13.2°C 58% 1.0 mph WSW1.6 kmh WSW 7.0 mph11.3 kmh 29.80 in1009.1 mb 0.00 in0.0 mm 0.00 in0.0 mm 0.00 in0.0 mm
10:30 AM 70.9°F21.6°C 55.4°F13.0°C 58% 1.0 mph WSW1.6 kmh WSW 7.0 mph11.3 kmh 29.80 in1009.1 mb 0.00 in0.0 mm 0.00 in0.0 mm 0.00 in0.0 mm
10:25 AM 70.5°F21.4°C 55.5°F13.1°C 59% 2.0 mph WSW3.2 kmh WSW 7.0 mph11.3 kmh 29.80 in1009.1 mb 0.00 in0.0 mm 0.00 in0.0 mm 0.00 in0.0 mm
10:20 AM 70.2°F21.2°C 55.7°F13.2°C 60% 3.0 mph WSW4.8 kmh WSW 8.0 mph12.9 kmh 29.81 in1009.5 mb 0.00 in0.0 mm 0.00 in0.0 mm 0.00 in0.0 mm
10:15 AM 69.9°F21.1°C 54.4°F12.4°C 58% 3.0 mph WSW4.8 kmh WSW 9.0 mph14.5 kmh 29.81 in1009.5 mb 0.00 in0.0 mm 0.00 in0.0 mm 0.00 in0.0 mm
10:10 AM 69.7°F20.9°C 55.2°F12.9°C 60% 2.0 mph WSW3.2 kmh WSW 9.0 mph14.5 kmh 29.80 in1009.1 mb 0.00 in0.0 mm 0.00 in0.0 mm 0.00 in0.0 mm
10:05 AM 69.3°F20.7°C 54.8°F12.7°C 60% 1.0 mph SW1.6 kmh SW 6.0 mph9.7 kmh 29.81 in1009.5 mb 0.00 in0.0 mm 0.00 in0.0 mm 0.00 in0.0 mm
10:00 AM 69.0°F20.6°C 54.5°F12.5°C 60% Calm Calm 6.0 mph9.7 kmh 29.81 in1009.5 mb 0.00 in0.0 mm 0.00 in0.0 mm 0.00 in0.0 mm
09:55 AM 68.8°F20.4°C 54.3°F12.4°C 60% 1.0 mph W1.6 kmh W 4.0 mph6.4 kmh 29.81 in1009.5 mb 0.00 in0.0 mm 0.00 in0.0 mm 0.00 in0.0 mm
09:50 AM 68.4°F20.2°C 54.4°F12.4°C 61% 2.0 mph WNW3.2 kmh WNW 5.0 mph8.0 kmh 29.81 in1009.5 mb 0.00 in0.0 mm 0.00 in0.0 mm 0.00 in0.0 mm
09:45 AM 68.1°F20.1°C 54.1°F12.3°C 61% 1.0 mph WNW1.6 kmh WNW 9.0 mph14.5 kmh 29.81 in1009.5 mb 0.00 in0.0 mm 0.00 in0.0 mm 0.00 in0.0 mm
09:40 AM 67.9°F19.9°C 55.3°F12.9°C 64% Calm Calm 9.0 mph14.5 kmh 29.81 in1009.5 mb 0.00 in0.0 mm 0.00 in0.0 mm 0.00 in0.0 mm
09:35 AM 67.6°F19.8°C 55.4°F13.0°C 65% Calm Calm 4.0 mph6.4 kmh 29.81 in1009.5 mb 0.00 in0.0 mm 0.00 in0.0 mm 0.00 in0.0 mm
09:30 AM 67.4°F19.7°C 54.8°F12.7°C 64% Calm Calm 1.0 mph1.6 kmh 29.81 in1009.5 mb 0.00 in0.0 mm 0.00 in0.0 mm 0.00 in0.0 mm
09:25 AM 67.2°F19.6°C 54.6°F12.6°C 64% Calm Calm 5.0 mph8.0 kmh 29.81 in1009.5 mb 0.00 in0.0 mm 0.00 in0.0 mm 0.00 in0.0 mm
09:20 AM 66.8°F19.3°C 55.1°F12.8°C 66% Calm Calm 5.0 mph8.0 kmh 29.81 in1009.5 mb 0.00 in0.0 mm 0.00 in0.0 mm 0.00 in0.0 mm
09:15 AM 66.4°F19.1°C 55.9°F13.3°C 69% Calm Calm 1.0 mph1.6 kmh 29.81 in1009.5 mb 0.00 in0.0 mm 0.00 in0.0 mm 0.00 in0.0 mm
09:10 AM 66.1°F18.9°C 55.2°F12.9°C 68% Calm Calm 4.0 mph6.4 kmh 29.81 in1009.5 mb 0.00 in0.0 mm 0.00 in0.0 mm 0.00 in0.0 mm
09:05 AM 65.9°F18.8°C 54.6°F12.6°C 67% Calm Calm 4.0 mph6.4 kmh 29.82 in1009.8 mb 0.00 in0.0 mm 0.00 in0.0 mm 0.00 in0.0 mm
09:00 AM 65.7°F18.7°C 54.8°F12.7°C 68% Calm Calm 2.0 mph3.2 kmh 29.81 in1009.5 mb 0.00 in0.0 mm 0.00 in0.0 mm 0.00 in0.0 mm
08:55 AM 65.4°F18.6°C 54.6°F12.6°C 68% Calm Calm 1.0 mph1.6 kmh 29.82 in1009.8 mb 0.00 in0.0 mm 0.00 in0.0 mm 0.00 in0.0 mm
08:50 AM 65.3°F18.5°C 54.9°F12.7°C 69% Calm Calm 1.0 mph1.6 kmh 29.82 in1009.8 mb 0.00 in0.0 mm 0.00 in0.0 mm 0.00 in0.0 mm
08:45 AM 65.1°F18.4°C 54.7°F12.6°C 69% Calm Calm 3.0 mph4.8 kmh 29.82 in1009.8 mb 0.00 in0.0 mm 0.00 in0.0 mm 0.00 in0.0 mm
08:40 AM 64.8°F18.2°C 55.2°F12.9°C 71% Calm Calm 3.0 mph4.8 kmh 29.82 in1009.8 mb 0.00 in0.0 mm 0.00 in0.0 mm 0.00 in0.0 mm
08:35 AM 64.6°F18.1°C 55.4°F13.0°C 72% Calm Calm 1.0 mph1.6 kmh 29.82 in1009.8 mb 0.00 in0.0 mm 0.00 in0.0 mm 0.00 in0.0 mm
08:30 AM 64.3°F17.9°C 54.7°F12.6°C 71% Calm Calm 1.0 mph1.6 kmh 29.82 in1009.8 mb 0.00 in0.0 mm 0.00 in0.0 mm 0.00 in0.0 mm
08:25 AM 64.0°F17.8°C 54.8°F12.7°C 72% Calm Calm 1.0 mph1.6 kmh 29.82 in1009.8 mb 0.00 in0.0 mm 0.00 in0.0 mm 0.00 in0.0 mm
08:20 AM 63.6°F17.6°C 55.2°F12.9°C 74% Calm Calm 1.0 mph1.6 kmh 29.82 in1009.8 mb 0.00 in0.0 mm 0.00 in0.0 mm 0.00 in0.0 mm
08:15 AM 63.2°F17.3°C 54.4°F12.4°C 73% Calm Calm 1.0 mph1.6 kmh 29.82 in1009.8 mb 0.00 in0.0 mm 0.00 in0.0 mm 0.00 in0.0 mm
08:10 AM 63.0°F17.2°C 54.2°F12.3°C 73% Calm Calm 1.0 mph1.6 kmh 29.81 in1009.5 mb 0.00 in0.0 mm 0.00 in0.0 mm 0.00 in0.0 mm
08:05 AM 62.7°F17.1°C 53.9°F12.2°C 73% Calm Calm 2.0 mph3.2 kmh 29.81 in1009.5 mb 0.00 in0.0 mm 0.00 in0.0 mm 0.00 in0.0 mm
08:00 AM 62.5°F16.9°C 54.1°F12.3°C 74% 1.0 mph SE1.6 kmh SE 5.0 mph8.0 kmh 29.81 in1009.5 mb 0.00 in0.0 mm 0.00 in0.0 mm 0.00 in0.0 mm
07:55 AM 62.3°F16.8°C 53.9°F12.2°C 74% 1.0 mph ESE1.6 kmh ESE 5.0 mph8.0 kmh 29.81 in1009.5 mb 0.00 in0.0 mm 0.00 in0.0 mm 0.00 in0.0 mm
07:50 AM 62.1°F16.7°C 54.4°F12.4°C 76% 1.0 mph SSE1.6 kmh SSE 4.0 mph6.4 kmh 29.81 in1009.5 mb 0.00 in0.0 mm 0.00 in0.0 mm 0.00 in0.0 mm
07:45 AM 61.8°F16.6°C 53.8°F12.1°C 75% 1.0 mph S1.6 kmh S 5.0 mph8.0 kmh 29.81 in1009.5 mb 0.00 in0.0 mm 0.00 in0.0 mm 0.00 in0.0 mm
07:40 AM 61.4°F16.3°C 53.4°F11.9°C 75% 1.0 mph S1.6 kmh S 5.0 mph8.0 kmh 29.81 in1009.5 mb 0.00 in0.0 mm 0.00 in0.0 mm 0.00 in0.0 mm
07:35 AM 60.9°F16.1°C 53.3°F11.8°C 76% 1.0 mph SSE1.6 kmh SSE 4.0 mph6.4 kmh 29.81 in1009.5 mb 0.00 in0.0 mm 0.00 in0.0 mm 0.00 in0.0 mm
07:30 AM 60.3°F15.7°C 53.1°F11.7°C 77% 1.0 mph SSE1.6 kmh SSE 5.0 mph8.0 kmh 29.81 in1009.5 mb 0.00 in0.0 mm 0.00 in0.0 mm 0.00 in0.0 mm
07:25 AM 59.6°F15.3°C 52.7°F11.5°C 78% 1.0 mph S1.6 kmh S 5.0 mph8.0 kmh 29.81 in1009.5 mb 0.00 in0.0 mm 0.00 in0.0 mm 0.00 in0.0 mm
07:20 AM 59.0°F15.0°C 52.8°F11.6°C 80% Calm Calm 3.0 mph4.8 kmh 29.81 in1009.5 mb 0.00 in0.0 mm 0.00 in0.0 mm 0.00 in0.0 mm
07:15 AM 58.4°F14.7°C 52.3°F11.3°C 80% Calm Calm 3.0 mph4.8 kmh 29.82 in1009.8 mb 0.00 in0.0 mm 0.00 in0.0 mm 0.00 in0.0 mm
07:10 AM 57.9°F14.4°C 52.8°F11.6°C 83% Calm Calm 1.0 mph1.6 kmh 29.81 in1009.5 mb 0.00 in0.0 mm 0.00 in0.0 mm 0.00 in0.0 mm
07:05 AM 57.6°F14.2°C 52.8°F11.6°C 84% Calm Calm 1.0 mph1.6 kmh 29.81 in1009.5 mb 0.00 in0.0 mm 0.00 in0.0 mm 0.00 in0.0 mm
07:00 AM 57.2°F14.0°C 52.7°F11.5°C 85% Calm Calm 1.0 mph1.6 kmh 29.81 in1009.5 mb 0.00 in0.0 mm 0.00 in0.0 mm 0.00 in0.0 mm
06:55 AM 56.8°F13.8°C 52.7°F11.5°C 86% Calm Calm 1.0 mph1.6 kmh 29.81 in1009.5 mb 0.00 in0.0 mm 0.00 in0.0 mm 0.00 in0.0 mm
06:50 AM 56.5°F13.6°C 52.4°F11.3°C 86% Calm Calm 1.0 mph1.6 kmh 29.81 in1009.5 mb 0.00 in0.0 mm 0.00 in0.0 mm 0.00 in0.0 mm
06:45 AM 56.1°F13.4°C 52.0°F11.1°C 86% Calm Calm 1.0 mph1.6 kmh 29.81 in1009.5 mb 0.00 in0.0 mm 0.00 in0.0 mm 0.00 in0.0 mm
06:40 AM 55.8°F13.2°C 52.3°F11.3°C 88% Calm Calm 1.0 mph1.6 kmh 29.81 in1009.5 mb 0.00 in0.0 mm 0.00 in0.0 mm 0.00 in0.0 mm
06:35 AM 55.5°F13.1°C 52.0°F11.1°C 88% Calm Calm 1.0 mph1.6 kmh 29.81 in1009.5 mb 0.00 in0.0 mm 0.00 in0.0 mm 0.00 in0.0 mm
06:30 AM 55.1°F12.8°C 51.6°F10.9°C 88% Calm Calm 1.0 mph1.6 kmh 29.81 in1009.5 mb 0.00 in0.0 mm 0.00 in0.0 mm 0.00 in0.0 mm
06:25 AM 54.9°F12.7°C 51.7°F10.9°C 89% Calm Calm 1.0 mph1.6 kmh 29.81 in1009.5 mb 0.00 in0.0 mm 0.00 in0.0 mm 0.00 in0.0 mm
06:20 AM 54.6°F12.6°C 51.7°F10.9°C 90% Calm Calm 1.0 mph1.6 kmh 29.81 in1009.5 mb 0.00 in0.0 mm 0.00 in0.0 mm 0.00 in0.0 mm
06:15 AM 54.2°F12.3°C 51.6°F10.9°C 91% Calm Calm 1.0 mph1.6 kmh 29.81 in1009.5 mb 0.00 in0.0 mm 0.00 in0.0 mm 0.00 in0.0 mm
06:10 AM 53.8°F12.1°C 51.2°F10.7°C 91% Calm Calm -- 29.81 in1009.5 mb 0.00 in0.0 mm 0.00 in0.0 mm 0.00 in0.0 mm
06:05 AM 53.4°F11.9°C 51.1°F10.6°C 92% Calm Calm 1.0 mph1.6 kmh 29.81 in1009.5 mb 0.00 in0.0 mm 0.00 in0.0 mm 0.00 in0.0 mm
06:00 AM 53.1°F11.7°C 50.8°F10.4°C 92% Calm Calm 1.0 mph1.6 kmh 29.81 in1009.5 mb 0.00 in0.0 mm 0.00 in0.0 mm 0.00 in0.0 mm
05:55 AM 52.7°F11.5°C 50.7°F10.4°C 93% Calm Calm 1.0 mph1.6 kmh 29.81 in1009.5 mb 0.00 in0.0 mm 0.00 in0.0 mm 0.00 in0.0 mm
05:50 AM 52.4°F11.3°C 50.4°F10.2°C 93% Calm Calm 1.0 mph1.6 kmh 29.81 in1009.5 mb 0.00 in0.0 mm 0.00 in0.0 mm 0.00 in0.0 mm
05:45 AM 52.0°F11.1°C 50.0°F10.0°C 93% Calm Calm 1.0 mph1.6 kmh 29.81 in1009.5 mb 0.00 in0.0 mm 0.00 in0.0 mm 0.00 in0.0 mm
05:40 AM 51.7°F10.9°C 49.7°F9.8°C 93% Calm Calm 1.0 mph1.6 kmh 29.81 in1009.5 mb 0.00 in0.0 mm 0.00 in0.0 mm 0.00 in0.0 mm
05:35 AM 51.4°F10.8°C 49.4°F9.7°C 93% Calm Calm 1.0 mph1.6 kmh 29.81 in1009.5 mb 0.00 in0.0 mm 0.00 in0.0 mm 0.00 in0.0 mm
05:30 AM 51.2°F10.7°C 49.2°F9.6°C 93% Calm Calm -- 29.81 in1009.5 mb 0.00 in0.0 mm 0.00 in0.0 mm 0.00 in0.0 mm
05:25 AM 51.0°F10.6°C 49.0°F9.4°C 93% Calm Calm -- 29.81 in1009.5 mb 0.00 in0.0 mm 0.00 in0.0 mm 0.00 in0.0 mm
05:20 AM 50.7°F10.4°C 48.7°F9.3°C 93% Calm Calm -- 29.81 in1009.5 mb 0.00 in0.0 mm 0.00 in0.0 mm 0.00 in0.0 mm
05:15 AM 50.5°F10.3°C 48.6°F9.2°C 93% Calm Calm -- 29.81 in1009.5 mb 0.00 in0.0 mm 0.00 in0.0 mm 0.00 in0.0 mm
05:10 AM 50.3°F10.2°C 48.4°F9.1°C 93% Calm Calm -- 29.81 in1009.5 mb 0.00 in0.0 mm 0.00 in0.0 mm 0.00 in0.0 mm
05:05 AM 50.1°F10.1°C 47.9°F8.8°C 92% Calm Calm 1.0 mph1.6 kmh 29.80 in1009.1 mb 0.00 in0.0 mm 0.00 in0.0 mm 0.00 in0.0 mm
05:00 AM 49.9°F9.9°C 47.7°F8.7°C 92% Calm Calm 1.0 mph1.6 kmh 29.80 in1009.1 mb 0.00 in0.0 mm 0.00 in0.0 mm 0.00 in0.0 mm
04:55 AM 49.7°F9.8°C 47.5°F8.6°C 92% Calm Calm 1.0 mph1.6 kmh 29.80 in1009.1 mb 0.00 in0.0 mm 0.00 in0.0 mm 0.00 in0.0 mm
04:50 AM 49.6°F9.8°C 47.4°F8.6°C 92% Calm Calm -- 29.80 in1009.1 mb 0.00 in0.0 mm 0.00 in0.0 mm 0.00 in0.0 mm
04:45 AM 49.5°F9.7°C 47.3°F8.5°C 92% Calm Calm -- 29.80 in1009.1 mb 0.00 in0.0 mm 0.00 in0.0 mm 0.00 in0.0 mm
04:40 AM 49.4°F9.7°C 46.9°F8.3°C 91% Calm Calm 1.0 mph1.6 kmh 29.80 in1009.1 mb 0.00 in0.0 mm 0.00 in0.0 mm 0.00 in0.0 mm
04:35 AM 49.3°F9.6°C 46.8°F8.2°C 91% Calm Calm 1.0 mph1.6 kmh 29.80 in1009.1 mb 0.00 in0.0 mm 0.00 in0.0 mm 0.00 in0.0 mm
04:30 AM 49.3°F9.6°C 46.8°F8.2°C 91% Calm Calm 1.0 mph1.6 kmh 29.80 in1009.1 mb 0.00 in0.0 mm 0.00 in0.0 mm 0.00 in0.0 mm
04:25 AM 49.3°F9.6°C 46.8°F8.2°C 91% Calm Calm 1.0 mph1.6 kmh 29.80 in1009.1 mb 0.00 in0.0 mm 0.00 in0.0 mm 0.00 in0.0 mm
04:20 AM 49.3°F9.6°C 46.8°F8.2°C 91% Calm Calm -- 29.80 in1009.1 mb 0.00 in0.0 mm 0.00 in0.0 mm 0.00 in0.0 mm
04:15 AM 49.3°F9.6°C 46.8°F8.2°C 91% Calm Calm -- 29.80 in1009.1 mb 0.00 in0.0 mm 0.00 in0.0 mm 0.00 in0.0 mm
04:10 AM 49.4°F9.7°C 46.9°F8.3°C 91% Calm Calm 1.0 mph1.6 kmh 29.80 in1009.1 mb 0.00 in0.0 mm 0.00 in0.0 mm 0.00 in0.0 mm
04:05 AM 49.4°F9.7°C 46.9°F8.3°C 91% Calm Calm 1.0 mph1.6 kmh 29.79 in1008.8 mb 0.00 in0.0 mm 0.00 in0.0 mm 0.00 in0.0 mm
04:00 AM 49.4°F9.7°C 46.9°F8.3°C 91% Calm Calm 2.0 mph3.2 kmh 29.79 in1008.8 mb 0.00 in0.0 mm 0.00 in0.0 mm 0.00 in0.0 mm
03:55 AM 49.4°F9.7°C 46.6°F8.1°C 90% Calm Calm 2.0 mph3.2 kmh 29.79 in1008.8 mb 0.00 in0.0 mm 0.00 in0.0 mm 0.00 in0.0 mm
03:50 AM 49.5°F9.7°C 46.7°F8.2°C 90% Calm Calm 2.0 mph3.2 kmh 29.78 in1008.5 mb 0.00 in0.0 mm 0.00 in0.0 mm 0.00 in0.0 mm
03:45 AM 49.6°F9.8°C 46.8°F8.2°C 90% Calm Calm -- 29.78 in1008.5 mb 0.00 in0.0 mm 0.00 in0.0 mm 0.00 in0.0 mm
03:40 AM 49.6°F9.8°C 46.8°F8.2°C 90% Calm Calm -- 29.78 in1008.5 mb 0.00 in0.0 mm 0.00 in0.0 mm 0.00 in0.0 mm
03:35 AM 49.7°F9.8°C 46.9°F8.3°C 90% Calm Calm 2.0 mph3.2 kmh 29.78 in1008.5 mb 0.00 in0.0 mm 0.00 in0.0 mm 0.00 in0.0 mm
03:30 AM 49.8°F9.9°C 46.7°F8.2°C 89% Calm Calm 2.0 mph3.2 kmh 29.78 in1008.5 mb 0.00 in0.0 mm 0.00 in0.0 mm 0.00 in0.0 mm
03:25 AM 49.9°F9.9°C 46.8°F8.2°C 89% Calm Calm 1.0 mph1.6 kmh 29.78 in1008.5 mb 0.00 in0.0 mm 0.00 in0.0 mm 0.00 in0.0 mm
03:20 AM 50.0°F10.0°C 46.9°F8.3°C 89% Calm Calm 1.0 mph1.6 kmh 29.78 in1008.5 mb 0.00 in0.0 mm 0.00 in0.0 mm 0.00 in0.0 mm
03:15 AM 50.1°F10.1°C 47.0°F8.3°C 89% Calm Calm 1.0 mph1.6 kmh 29.78 in1008.5 mb 0.00 in0.0 mm 0.00 in0.0 mm 0.00 in0.0 mm
03:10 AM 50.2°F10.1°C 46.8°F8.2°C 88% Calm Calm 2.0 mph3.2 kmh 29.78 in1008.5 mb 0.00 in0.0 mm 0.00 in0.0 mm 0.00 in0.0 mm
03:05 AM 50.3°F10.2°C 46.9°F8.3°C 88% Calm Calm 2.0 mph3.2 kmh 29.78 in1008.5 mb 0.00 in0.0 mm 0.00 in0.0 mm 0.00 in0.0 mm
03:00 AM 50.4°F10.2°C 47.0°F8.3°C 88% Calm Calm 1.0 mph1.6 kmh 29.78 in1008.5 mb 0.00 in0.0 mm 0.00 in0.0 mm 0.00 in0.0 mm
02:55 AM 50.5°F10.3°C 47.1°F8.4°C 88% Calm Calm 1.0 mph1.6 kmh 29.78 in1008.5 mb 0.00 in0.0 mm 0.00 in0.0 mm 0.00 in0.0 mm
02:50 AM 50.6°F10.3°C 47.2°F8.4°C 88% Calm Calm 1.0 mph1.6 kmh 29.78 in1008.5 mb 0.00 in0.0 mm 0.00 in0.0 mm 0.00 in0.0 mm
02:45 AM 50.9°F10.5°C 47.5°F8.6°C 88% Calm Calm 2.0 mph3.2 kmh 29.77 in1008.1 mb 0.00 in0.0 mm 0.00 in0.0 mm 0.00 in0.0 mm
02:40 AM 51.0°F10.6°C 47.6°F8.7°C 88% Calm Calm 2.0 mph3.2 kmh 29.77 in1008.1 mb 0.00 in0.0 mm 0.00 in0.0 mm 0.00 in0.0 mm
02:35 AM 51.2°F10.7°C 47.8°F8.8°C 88% Calm Calm 1.0 mph1.6 kmh 29.78 in1008.5 mb 0.00 in0.0 mm 0.00 in0.0 mm 0.00 in0.0 mm
02:30 AM 51.4°F10.8°C 48.0°F8.9°C 88% Calm Calm 1.0 mph1.6 kmh 29.78 in1008.5 mb 0.00 in0.0 mm 0.00 in0.0 mm 0.00 in0.0 mm
02:25 AM 51.5°F10.8°C 47.8°F8.8°C 87% Calm Calm -- 29.78 in1008.5 mb 0.00 in0.0 mm 0.00 in0.0 mm 0.00 in0.0 mm
02:20 AM 51.7°F10.9°C 48.0°F8.9°C 87% Calm Calm 1.0 mph1.6 kmh 29.77 in1008.1 mb 0.00 in0.0 mm 0.00 in0.0 mm 0.00 in0.0 mm
02:15 AM 51.9°F11.1°C 48.2°F9.0°C 87% Calm Calm 1.0 mph1.6 kmh 29.77 in1008.1 mb 0.00 in0.0 mm 0.00 in0.0 mm 0.00 in0.0 mm
02:10 AM 52.1°F11.2°C 48.3°F9.1°C 87% Calm Calm -- 29.77 in1008.1 mb 0.00 in0.0 mm 0.00 in0.0 mm 0.00 in0.0 mm
02:05 AM 52.2°F11.2°C 48.4°F9.1°C 87% Calm Calm -- 29.77 in1008.1 mb 0.00 in0.0 mm 0.00 in0.0 mm 0.00 in0.0 mm
02:00 AM 52.3°F11.3°C 48.5°F9.2°C 87% Calm Calm -- 29.77 in1008.1 mb 0.00 in0.0 mm 0.00 in0.0 mm 0.00 in0.0 mm
01:55 AM 52.5°F11.4°C 48.7°F9.3°C 87% Calm Calm -- 29.77 in1008.1 mb 0.00 in0.0 mm 0.00 in0.0 mm 0.00 in0.0 mm
01:50 AM 52.7°F11.5°C 48.9°F9.4°C 87% Calm Calm -- 29.77 in1008.1 mb 0.00 in0.0 mm 0.00 in0.0 mm 0.00 in0.0 mm
01:45 AM 52.9°F11.6°C 49.1°F9.5°C 87% Calm Calm 1.0 mph1.6 kmh 29.77 in1008.1 mb 0.00 in0.0 mm 0.00 in0.0 mm 0.00 in0.0 mm
01:40 AM 53.0°F11.7°C 48.9°F9.4°C 86% Calm Calm 2.0 mph3.2 kmh 29.77 in1008.1 mb 0.00 in0.0 mm 0.00 in0.0 mm 0.00 in0.0 mm
01:35 AM 53.3°F11.8°C 49.2°F9.6°C 86% Calm Calm 2.0 mph3.2 kmh 29.77 in1008.1 mb 0.00 in0.0 mm 0.00 in0.0 mm 0.00 in0.0 mm
01:30 AM 53.5°F11.9°C 49.4°F9.7°C 86% Calm Calm 2.0 mph3.2 kmh 29.77 in1008.1 mb 0.00 in0.0 mm 0.00 in0.0 mm 0.00 in0.0 mm
01:25 AM 53.8°F12.1°C 49.4°F9.7°C 85% Calm Calm 3.0 mph4.8 kmh 29.77 in1008.1 mb 0.00 in0.0 mm 0.00 in0.0 mm 0.00 in0.0 mm
01:20 AM 54.0°F12.2°C 49.6°F9.8°C 85% Calm Calm 3.0 mph4.8 kmh 29.77 in1008.1 mb 0.00 in0.0 mm 0.00 in0.0 mm 0.00 in0.0 mm
01:15 AM 54.3°F12.4°C 49.6°F9.8°C 84% Calm Calm 3.0 mph4.8 kmh 29.77 in1008.1 mb 0.00 in0.0 mm 0.00 in0.0 mm 0.00 in0.0 mm
01:10 AM 54.5°F12.5°C 49.8°F9.9°C 84% Calm Calm 2.0 mph3.2 kmh 29.77 in1008.1 mb 0.00 in0.0 mm 0.00 in0.0 mm 0.00 in0.0 mm
01:05 AM 54.8°F12.7°C 49.7°F9.8°C 83% Calm Calm 2.0 mph3.2 kmh 29.77 in1008.1 mb 0.00 in0.0 mm 0.00 in0.0 mm 0.00 in0.0 mm
01:00 AM 55.1°F12.8°C 50.0°F10.0°C 83% Calm Calm 2.0 mph3.2 kmh 29.77 in1008.1 mb 0.00 in0.0 mm 0.00 in0.0 mm 0.00 in0.0 mm
12:55 AM 55.4°F13.0°C 50.0°F10.0°C 82% Calm Calm 2.0 mph3.2 kmh 29.77 in1008.1 mb 0.00 in0.0 mm 0.00 in0.0 mm 0.00 in0.0 mm
12:50 AM 55.7°F13.2°C 50.0°F10.0°C 81% Calm Calm 2.0 mph3.2 kmh 29.77 in1008.1 mb 0.00 in0.0 mm 0.00 in0.0 mm 0.00 in0.0 mm
12:45 AM 56.0°F13.3°C 50.3°F10.2°C 81% Calm Calm 2.0 mph3.2 kmh 29.77 in1008.1 mb 0.00 in0.0 mm 0.00 in0.0 mm 0.00 in0.0 mm
12:40 AM 56.4°F13.6°C 50.6°F10.3°C 81% Calm Calm 2.0 mph3.2 kmh 29.77 in1008.1 mb 0.00 in0.0 mm 0.00 in0.0 mm 0.00 in0.0 mm
12:35 AM 56.6°F13.7°C 50.5°F10.3°C 80% Calm Calm 1.0 mph1.6 kmh 29.77 in1008.1 mb 0.00 in0.0 mm 0.00 in0.0 mm 0.00 in0.0 mm
12:30 AM 56.8°F13.8°C 50.7°F10.4°C 80% Calm Calm 1.0 mph1.6 kmh 29.77 in1008.1 mb 0.00 in0.0 mm 0.00 in0.0 mm 0.00 in0.0 mm
12:25 AM 57.1°F13.9°C 50.6°F10.3°C 79% Calm Calm 2.0 mph3.2 kmh 29.77 in1008.1 mb 0.00 in0.0 mm 0.00 in0.0 mm 0.00 in0.0 mm
12:20 AM 57.3°F14.1°C 50.5°F10.3°C 78% 1.0 mph NE1.6 kmh NE 3.0 mph4.8 kmh 29.77 in1008.1 mb 0.00 in0.0 mm 0.00 in0.0 mm 0.00 in0.0 mm
12:15 AM 57.6°F14.2°C 50.8°F10.4°C 78% 1.0 mph NE1.6 kmh NE 3.0 mph4.8 kmh 29.77 in1008.1 mb 0.00 in0.0 mm 0.00 in0.0 mm 0.00 in0.0 mm
12:10 AM 58.0°F14.4°C 51.2°F10.7°C 78% Calm Calm 3.0 mph4.8 kmh 29.77 in1008.1 mb 0.00 in0.0 mm 0.00 in0.0 mm 0.00 in0.0 mm
12:05 AM 58.4°F14.7°C 51.2°F10.7°C 77% Calm Calm 1.0 mph1.6 kmh 29.77 in1008.1 mb 0.00 in0.0 mm 0.00 in0.0 mm 0.00 in0.0 mm
12:00 AM 58.7°F14.8°C 51.2°F10.7°C 76% Calm Calm 1.0 mph1.6 kmh 29.76 in1007.8 mb 0.00 in0.0 mm 0.00 in0.0 mm 0.00 in0.0 mm